Time;durP1;ratioP1;P1;durP2;ratioP2;P2;SDS_P1;SDS_P2;PMS_P1;PMS_P2;Temp;Humidity;BMP_temperature;BMP_pressure;BME280_temperature;BME280_humidity;BME280_pressure;Samples;Min_cycle;Max_cycle;Signal;HPM_P1;HPM_P2
2022/09/30 00:00:16;;;;;;;31.27;15.73;;;;;;;11.88;74.13;99434.94;4972317;28;20121;-84
2022/09/30 00:02:44;;;;;;;30.75;16.50;;;;;;;11.91;73.61;99442.53;4971668;28;20035;-84
2022/09/30 00:05:10;;;;;;;36.10;17.98;;;;;;;11.86;73.16;99434.47;4972374;28;20047;-84
2022/09/30 00:07:36;;;;;;;31.45;17.65;;;;;;;11.94;73.16;99460.25;4954092;28;20039;-83
2022/09/30 00:10:05;;;;;;;34.00;17.13;;;;;;;11.79;73.37;99439.59;4947494;28;20074;-84
2022/09/30 00:12:32;;;;;;;32.28;16.98;;;;;;;11.61;73.76;99430.50;4941652;29;20424;-84
2022/09/30 00:15:00;;;;;;;30.10;15.88;;;;;;;11.58;73.60;99438.53;4966835;28;20078;-84
2022/09/30 00:17:27;;;;;;;32.67;16.27;;;;;;;11.70;73.74;99460.66;4974741;28;20154;-84
2022/09/30 00:19:53;;;;;;;33.45;17.55;;;;;;;11.62;73.67;99458.66;4956592;28;20475;-84
2022/09/30 00:22:20;;;;;;;38.33;18.63;;;;;;;11.39;74.89;99456.03;4956572;28;20039;-83
2022/09/30 00:24:46;;;;;;;39.65;18.55;;;;;;;11.26;75.15;99435.03;4968279;28;20043;-84
2022/09/30 00:27:17;;;;;;;39.83;19.13;;;;;;;11.46;74.95;99475.53;4940677;28;20460;-84
2022/09/30 00:29:44;;;;;;;34.30;18.38;;;;;;;11.48;74.59;99472.47;4965386;28;22001;-83
2022/09/30 00:32:10;;;;;;;33.45;17.48;;;;;;;11.27;74.26;99450.31;4974749;28;20393;-83
2022/09/30 00:34:36;;;;;;;31.85;18.25;;;;;;;11.31;74.21;99455.97;4974906;28;20045;-84
2022/09/30 00:37:03;;;;;;;33.53;18.70;;;;;;;11.23;74.59;99460.28;4974997;28;20046;-82
2022/09/30 00:39:30;;;;;;;30.58;16.85;;;;;;;11.29;75.21;99484.47;4972999;28;20717;-83
2022/09/30 00:42:03;;;;;;;35.65;18.17;;;;;;;11.04;75.14;99457.75;4926157;28;20034;-84
2022/09/30 00:44:55;;;;;;;31.67;16.60;;;;;;;11.14;75.21;99471.16;4970943;28;20039;-84
2022/09/30 00:47:43;;;;;;;30.27;17.48;;;;;;;11.17;75.03;99481.50;4964434;28;20042;-84
2022/09/30 00:50:18;;;;;;;32.13;16.42;;;;;;;11.16;74.35;99485.34;4972924;28;20039;-84
2022/09/30 00:53:08;;;;;;;34.60;16.85;;;;;;;11.00;75.18;99464.97;4955002;28;20401;-83
2022/09/30 00:55:50;;;;;;;35.55;17.08;;;;;;;11.15;74.76;99491.94;4941922;28;20051;-83
2022/09/30 00:58:43;;;;;;;33.90;16.33;;;;;;;11.04;74.77;99474.16;4926139;28;20038;-84
2022/09/30 01:01:09;;;;;;;30.65;17.00;;;;;;;11.15;74.64;99496.59;4966761;28;20516;-84
2022/09/30 01:03:42;;;;;;;35.42;17.60;;;;;;;11.02;74.42;99476.38;4948058;28;20133;-84
2022/09/30 01:06:08;;;;;;;32.85;17.48;;;;;;;11.03;74.81;99478.84;4957862;28;20049;-84
2022/09/30 01:08:38;;;;;;;31.80;16.43;;;;;;;11.09;74.77;99489.63;4942130;28;20045;-85
2022/09/30 01:11:04;;;;;;;29.33;15.13;;;;;;;11.12;75.65;99489.00;4970919;28;20356;-83
2022/09/30 01:13:33;;;;;;;30.17;15.90;;;;;;;11.05;75.19;99487.50;4925620;28;20462;-86
2022/09/30 01:16:15;;;;;;;27.02;15.60;;;;;;;11.10;75.37;99485.78;4975003;28;20178;-86
2022/09/30 01:19:04;;;;;;;27.40;15.07;;;;;;;11.09;74.57;99490.44;4922495;29;20086;-85
2022/09/30 01:21:51;;;;;;;26.70;14.70;;;;;;;11.08;74.63;99499.78;4965208;28;20039;-84
2022/09/30 01:24:20;;;;;;;28.15;15.48;;;;;;;10.99;74.54;99486.06;4972118;28;20620;-84
2022/09/30 01:26:55;;;;;;;26.05;14.48;;;;;;;10.99;74.00;99499.72;4940305;28;20150;-84
2022/09/30 01:29:38;;;;;;;24.13;13.40;;;;;;;10.85;74.00;99479.00;4973933;28;20043;-84
2022/09/30 01:32:19;;;;;;;28.65;13.43;;;;;;;10.88;73.70;99487.41;4973865;28;20046;-83
2022/09/30 01:35:03;;;;;;;27.13;13.07;;;;;;;10.90;73.21;99495.31;4972166;28;20043;-84
2022/09/30 01:38:11;;;;;;;21.67;13.68;;;;;;;10.93;73.80;99503.69;4974383;28;20417;-84
2022/09/30 01:41:02;;;;;;;27.08;14.32;;;;;;;10.88;74.19;99505.75;4974452;28;20039;-85
2022/09/30 01:43:47;;;;;;;26.17;13.77;;;;;;;10.92;74.04;99512.19;4963802;28;20044;-83
2022/09/30 01:46:26;;;;;;;30.80;14.80;;;;;;;10.80;74.51;99490.91;4974127;28;20070;-85
2022/09/30 01:48:58;;;;;;;33.30;15.95;;;;;;;10.77;74.29;99481.38;4956697;28;20042;-85
2022/09/30 01:51:52;;;;;;;23.90;14.18;;;;;;;10.86;74.41;99486.94;4957048;28;20419;-85
2022/09/30 01:54:32;;;;;;;25.58;14.85;;;;;;;10.95;74.19;99504.19;4955327;28;20046;-84
2022/09/30 01:57:05;;;;;;;26.95;15.15;;;;;;;10.83;73.92;99498.47;4953929;28;20049;-84
2022/09/30 01:59:41;;;;;;;25.70;15.00;;;;;;;10.77;73.87;99478.66;4938341;28;20039;-83
2022/09/30 02:02:24;;;;;;;22.50;14.40;;;;;;;10.87;73.62;99504.13;4963378;28;20049;-83
2022/09/30 02:05:10;;;;;;;28.58;15.70;;;;;;;10.74;73.58;99490.19;4972778;28;20125;-82
2022/09/30 02:07:50;;;;;;;25.75;15.30;;;;;;;10.74;73.53;99503.06;4937407;29;20035;-83
2022/09/30 02:10:25;;;;;;;24.02;14.30;;;;;;;10.72;73.86;99505.28;4965387;28;20053;-82
2022/09/30 02:13:03;;;;;;;33.83;14.63;;;;;;;10.68;73.51;99496.91;4965486;28;20398;-83
2022/09/30 02:15:37;;;;;;;105.78;15.50;;;;;;;10.54;74.03;99483.28;4923131;28;20034;-84
2022/09/30 02:18:38;;;;;;;100.05;16.35;;;;;;;10.64;74.07;99495.09;4967357;28;20038;-83
2022/09/30 02:21:08;;;;;;;113.63;19.15;;;;;;;10.57;74.06;99496.34;4956354;28;20050;-84
2022/09/30 02:23:40;;;;;;;105.65;15.88;;;;;;;10.47;73.73;99487.56;4972708;28;20053;-83
2022/09/30 02:26:29;;;;;;;166.50;16.20;;;;;;;10.55;73.72;99509.50;4954865;28;20034;-84
2022/09/30 02:29:03;;;;;;;440.38;22.17;;;;;;;10.39;73.98;99482.81;4953245;29;20071;-83
2022/09/30 02:31:34;;;;;;;448.67;21.10;;;;;;;10.52;74.18;99504.63;4958774;28;20049;-85
2022/09/30 02:34:15;;;;;;;521.38;22.73;;;;;;;10.46;74.50;99505.88;4968766;28;20039;-85
2022/09/30 02:37:13;;;;;;;262.25;17.63;;;;;;;10.36;74.61;99481.50;4961587;28;20110;-84
2022/09/30 02:39:51;;;;;;;386.70;21.25;;;;;;;10.45;74.75;99498.78;4945453;28;20047;-84
2022/09/30 02:42:27;;;;;;;334.85;17.63;;;;;;;10.39;74.77;99494.53;4956141;28;20412;-85
2022/09/30 02:45:00;;;;;;;446.63;21.42;;;;;;;10.30;74.77;99496.41;4933334;28;20104;-84
2022/09/30 02:48:04;;;;;;;298.05;17.63;;;;;;;10.41;74.83;99502.44;4922989;28;20122;-82
2022/09/30 02:50:48;;;;;;;330.25;20.02;;;;;;;10.45;75.07;99509.72;4972938;28;20172;-83
2022/09/30 02:53:20;;;;;;;402.65;19.70;;;;;;;10.51;74.40;99502.22;4973011;28;20043;-83
2022/09/30 02:56:05;;;;;;;344.95;18.30;;;;;;;10.50;75.03;99501.41;4954127;28;20041;-84
2022/09/30 02:58:33;;;;;;;470.13;20.08;;;;;;;10.24;74.68;99465.63;4920491;29;20045;-84
2022/09/30 03:00:59;;;;;;;314.40;18.50;;;;;;;10.42;75.02;99502.13;4930500;28;20047;-84
2022/09/30 03:03:31;;;;;;;316.00;18.03;;;;;;;10.34;74.75;99478.28;4939879;28;20047;-83
2022/09/30 03:05:57;;;;;;;172.07;15.65;;;;;;;10.40;74.72;99485.25;4971698;28;20471;-84
2022/09/30 03:08:25;;;;;;;253.63;16.33;;;;;;;10.58;74.48;99516.28;4971163;28;20595;-83
2022/09/30 03:10:52;;;;;;;157.55;15.70;;;;;;;10.39;74.02;99483.63;4936855;28;20050;-83
2022/09/30 03:13:35;;;;;;;89.78;13.40;;;;;;;10.55;74.04;99495.00;4909810;28;20412;-82
2022/09/30 03:16:20;;;;;;;73.32;14.65;;;;;;;10.70;73.82;99511.09;4964172;28;20059;-84
2022/09/30 03:19:41;;;;;;;49.70;12.52;;;;;;;10.75;73.71;99508.22;4985833;28;20100;-85
2022/09/30 03:22:37;;;;;;;35.75;13.13;;;;;;;10.79;73.69;99513.88;4869851;29;20562;-83
2022/09/30 03:25:27;;;;;;;23.08;12.93;;;;;;;10.75;73.47;99501.94;4959474;28;20065;-83
2022/09/30 03:28:09;;;;;;;34.70;12.93;;;;;;;10.73;73.59;99507.72;4953302;29;20603;-82
2022/09/30 03:30:48;;;;;;;30.50;16.65;;;;;;;10.70;73.65;99515.75;4972000;28;20053;-82
2022/09/30 03:33:22;;;;;;;24.25;13.02;;;;;;;10.77;73.58;99513.38;4955548;28;20046;-82
2022/09/30 03:36:27;;;;;;;27.45;12.45;;;;;;;10.67;73.33;99506.22;4934977;29;20142;-84
2022/09/30 03:39:12;;;;;;;22.48;12.02;;;;;;;10.71;73.72;99523.63;4933499;28;20139;-82
2022/09/30 03:41:47;;;;;;;25.25;11.77;;;;;;;10.62;73.59;99511.81;4917353;29;20106;-83
2022/09/30 03:44:41;;;;;;;24.20;13.98;;;;;;;10.68;73.58;99509.75;4934206;29;20046;-84
2022/09/30 03:47:10;;;;;;;20.70;12.35;;;;;;;10.57;73.46;99499.06;4901633;29;20082;-84
2022/09/30 03:49:47;;;;;;;26.80;12.38;;;;;;;10.67;73.43;99516.34;4934026;29;20421;-84
2022/09/30 03:52:14;;;;;;;24.17;12.55;;;;;;;10.76;73.16;99530.88;4936887;29;20051;-84
2022/09/30 03:55:04;;;;;;;25.77;13.45;;;;;;;10.54;73.17;99487.94;4937727;29;20044;-84
2022/09/30 03:57:30;;;;;;;19.42;12.23;;;;;;;10.71;72.82;99512.69;4937648;29;20043;-84
2022/09/30 03:59:57;;;;;;;20.05;12.88;;;;;;;10.74;72.63;99528.47;4920776;29;20450;-84
2022/09/30 04:02:25;;;;;;;24.83;11.98;;;;;;;10.61;72.61;99503.91;4909589;29;20058;-85
2022/09/30 04:04:52;;;;;;;25.33;12.50;;;;;;;10.76;73.03;99520.78;4952934;29;20082;-85
2022/09/30 04:07:18;;;;;;;29.95;13.32;;;;;;;10.74;73.53;99516.75;4938921;29;20043;-85
2022/09/30 04:09:44;;;;;;;23.05;13.20;;;;;;;10.63;73.52;99490.72;4954741;28;20039;-84
2022/09/30 04:12:10;;;;;;;25.50;13.50;;;;;;;10.53;73.38;99470.75;4955641;29;20051;-84
2022/09/30 04:14:37;;;;;;;24.87;13.17;;;;;;;10.72;73.55;99499.81;4955084;28;20039;-76
2022/09/30 04:17:04;;;;;;;23.92;12.88;;;;;;;10.85;73.75;99517.28;4955913;29;20422;-86
2022/09/30 04:19:31;;;;;;;24.13;13.25;;;;;;;10.90;73.70;99507.06;4939059;29;20031;-87
2022/09/30 04:21:57;;;;;;;39.90;15.10;;;;;;;10.94;73.76;99513.50;4938735;29;20524;-84
2022/09/30 04:24:23;;;;;;;29.73;13.67;;;;;;;10.82;73.77;99519.53;4922497;29;20089;-78
2022/09/30 04:26:50;;;;;;;32.38;15.65;;;;;;;10.76;74.14;99514.47;4949407;28;20051;-77
2022/09/30 04:29:17;;;;;;;26.52;14.15;;;;;;;10.79;74.30;99505.66;4956165;29;20535;-77
2022/09/30 04:31:43;;;;;;;24.20;13.85;;;;;;;10.87;74.26;99512.34;4956054;29;20043;-76
2022/09/30 04:34:10;;;;;;;31.92;14.77;;;;;;;10.92;73.96;99493.84;4956168;29;20047;-77
2022/09/30 04:36:36;;;;;;;30.95;13.88;;;;;;;11.15;73.79;99521.22;4973689;28;20035;-77
2022/09/30 04:39:03;;;;;;;38.60;13.98;;;;;;;11.13;73.54;99496.91;4957741;28;20039;-77
2022/09/30 04:41:31;;;;;;;29.48;13.30;;;;;;;11.13;73.71;99496.91;4955792;28;20050;-78
2022/09/30 04:43:57;;;;;;;39.45;14.07;;;;;;;11.18;73.68;99493.22;4955820;29;20050;-78
2022/09/30 04:46:24;;;;;;;27.27;14.77;;;;;;;11.26;73.37;99511.66;4966272;28;20068;-78
2022/09/30 04:48:50;;;;;;;28.60;13.25;;;;;;;11.17;73.62;99514.31;4975151;28;20081;-77
2022/09/30 04:51:19;;;;;;;39.95;14.98;;;;;;;11.11;74.06;99515.56;4975389;28;20070;-78
2022/09/30 04:53:46;;;;;;;44.55;14.85;;;;;;;11.11;74.14;99518.31;4975339;28;20121;-76
2022/09/30 04:56:13;;;;;;;43.45;15.43;;;;;;;11.20;74.81;99530.13;4974121;28;20039;-77
2022/09/30 04:58:39;;;;;;;;;;;;;;;11.30;74.14;99531.78;4975686;28;20043;-75
2022/09/30 05:01:16;;;;;;;43.83;15.85;;;;;;;11.40;74.16;99528.00;4974900;28;20002;-78
2022/09/30 05:03:43;;;;;;;28.85;14.60;;;;;;;11.45;73.88;99525.91;4973674;28;20539;-77
2022/09/30 05:06:11;;;;;;;30.63;14.77;;;;;;;11.47;73.58;99525.63;4973757;28;20049;-78
2022/09/30 05:08:37;;;;;;;29.38;15.82;;;;;;;11.49;73.22;99526.13;4955503;29;20118;-77
2022/09/30 05:11:08;;;;;;;28.63;15.23;;;;;;;11.59;73.21;99538.72;4955801;29;20585;-76
2022/09/30 05:13:37;;;;;;;27.70;15.82;;;;;;;11.56;73.52;99526.47;4955412;29;20043;-78
2022/09/30 05:16:04;;;;;;;29.48;15.95;;;;;;;11.64;73.32;99533.91;4955430;28;20050;-78
2022/09/30 05:18:30;;;;;;;;;;;;;;;11.66;73.46;99539.88;4971907;28;20035;-77
2022/09/30 05:20:57;;;;;;;31.10;16.13;;;;;;;11.60;73.53;99532.94;4974628;28;19921;-77
2022/09/30 05:23:26;;;;;;;31.95;15.82;;;;;;;11.68;73.82;99540.38;4974594;28;20321;-78
2022/09/30 05:25:52;;;;;;;29.17;14.65;;;;;;;11.77;73.46;99540.41;4974317;28;20102;-77
2022/09/30 05:28:18;;;;;;;28.67;15.43;;;;;;;11.84;73.51;99537.22;4974197;28;20047;-78
2022/09/30 05:30:45;;;;;;;35.97;15.30;;;;;;;11.91;73.29;99543.09;4974554;28;20054;-76
2022/09/30 05:33:12;;;;;;;34.08;14.77;;;;;;;11.98;73.55;99546.97;4974583;28;20043;-77
2022/09/30 05:35:41;;;;;;;41.20;14.93;;;;;;;12.02;73.45;99546.34;4973548;28;20053;-78
2022/09/30 05:38:09;;;;;;;35.00;13.82;;;;;;;12.04;73.84;99546.84;4973965;28;20057;-77
2022/09/30 05:40:39;;;;;;;41.75;15.00;;;;;;;12.08;73.88;99543.13;4957059;28;20037;-78
2022/09/30 05:43:06;;;;;;;44.08;14.50;;;;;;;12.12;73.24;99530.44;4974126;28;20053;-76
2022/09/30 05:45:33;;;;;;;32.28;15.30;;;;;;;12.22;73.03;99532.88;4973200;28;20031;-77
2022/09/30 05:48:00;;;;;;;27.35;13.35;;;;;;;12.24;73.24;99532.56;4974382;28;20048;-78
2022/09/30 05:50:26;;;;;;;28.52;13.73;;;;;;;12.22;72.97;99535.63;4973892;28;20415;-77
2022/09/30 05:52:52;;;;;;;25.38;12.88;;;;;;;12.28;73.01;99535.47;4974001;28;20142;-76
2022/09/30 05:55:20;;;;;;;26.67;12.52;;;;;;;12.34;72.88;99545.16;4973908;28;20035;-76
2022/09/30 05:57:48;;;;;;;28.55;12.65;;;;;;;12.43;73.13;99544.06;4973828;28;20077;-78
2022/09/30 06:00:17;;;;;;;20.95;12.85;;;;;;;12.48;73.20;99537.59;4973748;28;20042;-79
2022/09/30 06:02:43;;;;;;;34.25;13.73;;;;;;;12.49;73.68;99522.78;4973906;28;20129;-79
2022/09/30 06:05:11;;;;;;;23.77;12.52;;;;;;;12.63;72.37;99537.16;4974061;28;20071;-77
2022/09/30 06:07:38;;;;;;;23.83;12.57;;;;;;;12.75;72.46;99539.28;4974022;28;20047;-77
2022/09/30 06:10:06;;;;;;;26.75;12.10;;;;;;;12.81;72.85;99531.66;4973599;28;20039;-77
2022/09/30 06:12:37;;;;;;;28.27;12.98;;;;;;;12.85;72.44;99527.97;4973823;28;20073;-75
2022/09/30 06:15:05;;;;;;;26.70;13.18;;;;;;;12.90;72.91;99518.75;4973238;28;20037;-76
2022/09/30 06:17:31;;;;;;;28.50;14.25;;;;;;;12.96;72.28;99522.16;4973342;28;20094;-75
2022/09/30 06:19:57;;;;;;;24.23;12.63;;;;;;;12.98;72.15;99517.97;4972815;28;20133;-76
2022/09/30 06:22:24;;;;;;;37.05;14.23;;;;;;;13.11;71.79;99521.63;4973186;28;20070;-74
2022/09/30 06:24:50;;;;;;;30.30;13.13;;;;;;;13.15;71.43;99539.09;4973299;28;20066;-75
2022/09/30 06:27:16;;;;;;;28.55;12.77;;;;;;;13.21;71.97;99528.72;4972995;28;20054;-78
2022/09/30 06:29:42;;;;;;;20.83;11.85;;;;;;;13.27;71.70;99525.53;4973132;28;20053;-75
2022/09/30 06:32:08;;;;;;;21.17;12.10;;;;;;;13.36;71.32;99523.56;4973208;28;20137;-75
2022/09/30 06:34:34;;;;;;;21.45;11.95;;;;;;;13.49;71.22;99542.94;4973236;28;20551;-74
2022/09/30 06:37:00;;;;;;;23.83;12.77;;;;;;;13.40;71.49;99519.03;4973399;28;20039;-75
2022/09/30 06:39:27;;;;;;;30.80;14.63;;;;;;;13.62;71.70;99544.69;4973114;28;20400;-76
2022/09/30 06:41:55;;;;;;;27.63;12.00;;;;;;;13.69;71.15;99530.44;4973380;28;20127;-75
2022/09/30 06:44:24;;;;;;;24.90;12.18;;;;;;;13.73;71.26;99529.44;4973427;28;20046;-74
2022/09/30 06:46:52;;;;;;;29.55;12.60;;;;;;;13.79;71.14;99533.63;4973223;28;20085;-74
2022/09/30 06:49:18;;;;;;;45.60;14.07;;;;;;;13.85;70.18;99537.00;4955530;28;20424;-74
2022/09/30 06:51:44;;;;;;;27.53;13.27;;;;;;;13.90;70.04;99533.28;4972798;28;20381;-74
2022/09/30 06:54:11;;;;;;;24.60;12.90;;;;;;;13.99;69.86;99536.78;4972868;28;20129;-76
2022/09/30 06:56:37;;;;;;;25.45;13.13;;;;;;;14.04;70.12;99525.63;4973154;28;20038;-76
2022/09/30 06:59:03;;;;;;;27.13;12.65;;;;;;;13.96;69.20;99512.72;4972880;28;20042;-75
2022/09/30 07:01:29;;;;;;;20.45;12.60;;;;;;;14.09;69.28;99526.22;4972991;28;20061;-74
2022/09/30 07:03:56;;;;;;;20.90;12.63;;;;;;;14.13;69.03;99531.06;4973127;28;20415;-74
2022/09/30 07:06:27;;;;;;;20.83;12.65;;;;;;;14.15;69.45;99534.31;4972716;28;20039;-73
2022/09/30 07:08:55;;;;;;;27.73;13.27;;;;;;;14.19;69.63;99533.28;4972790;28;20043;-74
2022/09/30 07:11:22;;;;;;;23.23;12.82;;;;;;;14.17;69.58;99530.09;4972929;28;20055;-74
2022/09/30 07:13:49;;;;;;;22.58;12.73;;;;;;;14.25;69.88;99536.66;4972951;28;20043;-75
2022/09/30 07:16:18;;;;;;;33.75;14.07;;;;;;;14.21;69.82;99538.47;4972799;28;20039;-75
2022/09/30 07:18:45;;;;;;;35.38;13.68;;;;;;;14.20;69.72;99536.84;4972601;28;20050;-74
2022/09/30 07:21:14;;;;;;;30.92;13.35;;;;;;;14.26;69.89;99541.81;4972844;28;20125;-73
2022/09/30 07:23:48;;;;;;;47.45;13.55;;;;;;;14.25;70.08;99531.16;4973017;28;20418;-74
2022/09/30 07:26:16;;;;;;;22.42;11.55;;;;;;;14.30;69.73;99537.28;4974248;28;20408;-74
2022/09/30 07:28:43;;;;;;;31.95;12.45;;;;;;;14.31;70.04;99538.91;4976484;28;20065;-75
2022/09/30 07:31:12;;;;;;;;;;;;;;;14.32;70.03;99543.25;4977144;28;20058;-73
2022/09/30 07:33:38;;;;;;;34.00;14.57;;;;;;;14.24;69.87;99546.88;4976733;28;20299;-75
2022/09/30 07:36:07;;;;;;;22.52;12.70;;;;;;;14.25;70.17;99548.47;4976430;28;20079;-75
2022/09/30 07:38:36;;;;;;;27.70;13.13;;;;;;;14.33;70.30;99549.56;4976695;28;20066;-75
2022/09/30 07:41:06;;;;;;;41.55;13.32;;;;;;;14.38;69.94;99548.56;4976367;28;20493;-75
2022/09/30 07:43:39;;;;;;;51.53;14.73;;;;;;;14.41;69.95;99553.41;4959072;28;20050;-74
2022/09/30 07:46:13;;;;;;;203.52;26.25;;;;;;;14.48;69.82;99553.69;4958850;28;20490;-75
2022/09/30 07:48:49;;;;;;;798.67;67.53;;;;;;;14.38;69.35;99554.06;4976265;28;20045;-74
2022/09/30 07:51:22;;;;;;;240.70;31.30;;;;;;;14.39;70.22;99539.16;4976494;28;20054;-76
2022/09/30 07:53:53;;;;;;;120.43;17.55;;;;;;;14.59;70.65;99549.44;4976458;28;20043;-76
2022/09/30 07:56:21;;;;;;;71.35;14.80;;;;;;;14.72;70.88;99553.88;4976398;28;20051;-76
2022/09/30 07:58:47;;;;;;;30.83;14.13;;;;;;;14.74;70.49;99548.84;4976298;28;20062;-73
2022/09/30 08:01:15;;;;;;;39.00;13.75;;;;;;;14.83;70.28;99534.19;4976025;28;20042;-74
2022/09/30 08:03:43;;;;;;;35.30;15.57;;;;;;;14.93;70.71;99531.03;4958737;28;20042;-74
2022/09/30 08:06:15;;;;;;;49.83;17.42;;;;;;;15.01;70.42;99532.94;4975888;28;20051;-74
2022/09/30 08:08:43;;;;;;;41.22;16.05;;;;;;;15.14;70.39;99537.34;4975945;28;20070;-73
2022/09/30 08:11:10;;;;;;;29.00;15.00;;;;;;;15.15;70.26;99540.91;4975952;28;20057;-73
2022/09/30 08:13:37;;;;;;;27.20;15.05;;;;;;;15.28;70.10;99539.81;4958319;28;20500;-75
2022/09/30 08:16:03;;;;;;;;;;;;;;;15.46;70.17;99554.19;4976412;28;20046;-74
2022/09/30 08:18:30;;;;;;;48.38;16.58;;;;;;;15.56;70.11;99550.22;4975717;28;20318;-74
2022/09/30 08:20:56;;;;;;;34.33;15.48;;;;;;;15.68;69.96;99550.28;4975919;28;20041;-74
2022/09/30 08:23:23;;;;;;;35.35;13.68;;;;;;;15.66;68.96;99541.50;4975662;28;20041;-75
2022/09/30 08:25:50;;;;;;;25.20;13.23;;;;;;;15.81;69.04;99538.13;4975446;28;20061;-74
2022/09/30 08:28:17;;;;;;;39.50;16.23;;;;;;;15.93;69.71;99551.13;4975446;28;20393;-75
2022/09/30 08:30:43;;;;;;;31.48;16.85;;;;;;;15.85;69.14;99552.03;4974425;28;20097;-74
2022/09/30 08:33:10;;;;;;;41.70;18.07;;;;;;;15.91;69.29;99547.91;4974521;28;20535;-75
2022/09/30 08:35:36;;;;;;;37.97;20.05;;;;;;;16.00;68.84;99545.84;4974356;28;20301;-74
2022/09/30 08:38:03;;;;;;;42.28;19.00;;;;;;;16.07;68.68;99537.00;4975035;28;20071;-73
2022/09/30 08:40:47;;;;;;;47.37;20.67;;;;;;;16.14;69.07;99527.00;4973829;28;20427;-75
2022/09/30 08:43:38;;;;;;;44.85;21.95;;;;;;;16.18;68.59;99538.94;4975427;28;20320;-74
2022/09/30 08:46:25;;;;;;;40.65;20.13;;;;;;;16.25;68.44;99540.34;4975294;28;20122;-75
2022/09/30 08:49:11;;;;;;;37.83;20.05;;;;;;;16.25;69.01;99513.56;4975107;28;20082;-76
2022/09/30 08:51:44;;;;;;;33.90;19.55;;;;;;;16.31;68.77;99523.19;4975274;28;20046;-77
2022/09/30 08:54:15;;;;;;;36.55;18.52;;;;;;;16.36;68.61;99511.16;4974989;28;20101;-75
2022/09/30 08:56:44;;;;;;;48.22;18.95;;;;;;;16.38;68.66;99515.16;4974914;28;20137;-75
2022/09/30 08:59:35;;;;;;;40.50;18.63;;;;;;;16.35;68.71;99518.59;4974777;28;20043;-77
2022/09/30 09:02:26;;;;;;;41.00;19.42;;;;;;;16.39;67.64;99525.06;4975247;28;20046;-76
2022/09/30 09:04:57;;;;;;;44.97;19.75;;;;;;;16.34;69.12;99514.25;4975030;28;20105;-76
2022/09/30 09:07:39;;;;;;;42.55;20.27;;;;;;;16.32;69.12;99518.50;4957876;28;20105;-77
2022/09/30 09:10:21;;;;;;;40.35;20.55;;;;;;;16.42;69.20;99524.38;4974615;28;20559;-77
2022/09/30 09:13:14;;;;;;;34.92;18.08;;;;;;;16.57;68.64;99519.28;4974684;28;20512;-76
2022/09/30 09:15:58;;;;;;;47.55;20.13;;;;;;;16.58;68.69;99502.34;4975013;28;20054;-76
2022/09/30 09:18:43;;;;;;;52.65;21.30;;;;;;;16.72;68.75;99503.94;4975044;28;20093;-76
2022/09/30 09:21:18;;;;;;;42.25;20.25;;;;;;;16.78;68.72;99502.56;4974928;28;20129;-76
2022/09/30 09:23:46;;;;;;;46.22;21.75;;;;;;;16.83;68.37;99507.84;4972249;28;20125;-75
2022/09/30 09:26:14;;;;;;;42.25;20.15;;;;;;;16.87;68.52;99514.28;4974326;28;20039;-76
2022/09/30 09:29:08;;;;;;;55.10;21.20;;;;;;;17.00;67.61;99502.03;4974163;28;20057;-76
2022/09/30 09:31:34;;;;;;;50.15;21.33;;;;;;;17.09;67.88;99496.38;4974364;28;20051;-76
2022/09/30 09:34:11;;;;;;;40.75;20.83;;;;;;;17.16;67.73;99504.03;4957782;28;20047;-77
2022/09/30 09:36:46;;;;;;;42.85;21.10;;;;;;;17.22;67.46;99508.13;4974565;28;20129;-76
2022/09/30 09:39:42;;;;;;;48.50;22.08;;;;;;;17.18;67.55;99508.03;4974507;28;20105;-76
2022/09/30 09:42:30;;;;;;;50.42;20.80;;;;;;;17.23;67.29;99496.75;4974386;28;20059;-77
2022/09/30 09:45:00;;;;;;;41.92;21.58;;;;;;;17.31;67.81;99501.28;4974204;28;20492;-78
2022/09/30 09:47:29;;;;;;;43.03;22.08;;;;;;;17.27;67.67;99492.13;4974289;28;20051;-80
2022/09/30 09:50:03;;;;;;;48.25;21.98;;;;;;;17.35;67.71;99493.94;4973389;28;20073;-80
2022/09/30 09:52:57;;;;;;;53.83;21.73;;;;;;;17.47;67.23;99500.53;4974096;28;20424;-77
2022/09/30 09:55:23;;;;;;;48.47;20.67;;;;;;;17.52;66.84;99509.38;4959329;28;20455;-79
2022/09/30 09:58:09;;;;;;;39.55;20.83;;;;;;;17.57;66.79;99517.38;4973952;28;20093;-78
2022/09/30 10:03:26;;;;;;;45.35;20.83;;;;;;;17.88;66.30;99520.56;4973842;28;20606;-80
2022/09/30 10:06:03;;;;;;;38.95;20.05;;;;;;;18.02;66.66;99521.72;4973214;28;20050;-79
2022/09/30 10:08:34;;;;;;;43.10;22.38;;;;;;;18.06;66.37;99516.28;4955979;28;20047;-80
2022/09/30 10:11:04;;;;;;;52.83;22.83;;;;;;;18.00;66.08;99501.13;4974026;28;20050;-80
2022/09/30 10:13:37;;;;;;;59.55;24.05;;;;;;;18.03;65.90;99517.00;4956124;28;20389;-80
2022/09/30 10:16:04;;;;;;;40.03;21.42;;;;;;;18.00;65.49;99518.50;4973597;28;20055;-80
2022/09/30 10:18:36;;;;;;;38.33;21.40;;;;;;;17.99;65.72;99516.91;4973446;28;20051;-80
2022/09/30 10:21:23;;;;;;;49.00;24.02;;;;;;;17.79;66.53;99510.50;4973472;28;20512;-80
2022/09/30 10:23:50;;;;;;;51.45;26.35;;;;;;;17.81;66.82;99510.13;4973416;28;20057;-77
2022/09/30 10:26:22;;;;;;;54.40;25.58;;;;;;;17.76;67.07;99507.59;4973411;28;20121;-79
2022/09/30 10:29:05;;;;;;;69.00;31.52;;;;;;;17.69;66.55;99508.22;4973170;28;20059;-78
2022/09/30 10:31:36;;;;;;;49.85;25.55;;;;;;;17.78;67.47;99511.66;4971881;28;20062;-77
2022/09/30 10:34:08;;;;;;;57.63;24.70;;;;;;;17.91;66.45;99509.59;4972653;28;20031;-77
2022/09/30 10:36:38;;;;;;;57.03;24.38;;;;;;;18.06;66.70;99514.31;4973181;28;20125;-76
2022/09/30 10:39:23;;;;;;;53.10;22.67;;;;;;;18.19;66.81;99517.00;4972919;28;20424;-76
2022/09/30 10:41:59;;;;;;;42.70;22.73;;;;;;;18.21;65.98;99509.13;4973164;28;20141;-76
2022/09/30 10:44:27;;;;;;;51.67;24.10;;;;;;;18.18;66.54;99505.13;4973276;28;20045;-83
2022/09/30 10:47:00;;;;;;;44.13;23.70;;;;;;;18.18;65.98;99510.66;4973054;28;20039;-85
2022/09/30 10:49:38;;;;;;;46.72;23.23;;;;;;;18.07;66.28;99509.59;4973297;28;20057;-85
2022/09/30 10:52:15;;;;;;;46.40;23.08;;;;;;;18.15;65.90;99502.28;4967943;28;20082;-84
2022/09/30 10:54:55;;;;;;;56.45;24.55;;;;;;;18.27;66.39;99502.94;4953807;29;20519;-84
2022/09/30 10:57:28;;;;;;;51.67;25.10;;;;;;;18.37;66.21;99493.28;4963908;28;20054;-84
2022/09/30 11:00:17;;;;;;;39.97;22.73;;;;;;;18.45;65.22;99497.84;4972598;28;20051;-84
2022/09/30 11:02:53;;;;;;;48.03;23.17;;;;;;;18.56;65.18;99498.06;4972669;28;20039;-80
2022/09/30 11:05:42;;;;;;;55.85;26.15;;;;;;;18.58;64.57;99492.97;4972860;28;20051;-81
2022/09/30 11:08:20;;;;;;;46.65;24.33;;;;;;;18.64;63.89;99502.59;4955482;28;20538;-83
2022/09/30 11:11:10;;;;;;;52.08;24.42;;;;;;;18.66;63.93;99483.66;4936293;29;20099;-83
2022/09/30 11:13:48;;;;;;;48.22;23.13;;;;;;;18.69;63.16;99495.97;4953496;29;20098;-86
2022/09/30 11:16:23;;;;;;;48.10;24.30;;;;;;;18.62;63.09;99476.44;4953521;29;20050;-86
2022/09/30 11:19:00;;;;;;;46.03;23.88;;;;;;;18.70;63.19;99501.13;4936461;29;20051;-85
2022/09/30 11:21:35;;;;;;;;;;;;;;;18.80;63.88;99499.78;4953846;29;20047;-83
2022/09/30 11:24:13;;;;;;;38.85;21.20;;;;;;;18.83;63.67;99495.50;4935697;28;19923;-83
2022/09/30 11:26:49;;;;;;;41.25;20.35;;;;;;;18.82;63.11;99485.59;4970153;28;20046;-85
2022/09/30 11:29:57;;;;;;;41.90;19.77;;;;;;;18.83;63.66;99492.72;4972341;28;20075;-85
2022/09/30 11:32:53;;;;;;;38.53;19.77;;;;;;;18.91;63.62;99489.75;4972065;28;20539;-86
2022/09/30 11:35:34;;;;;;;;;;;;;;;18.87;63.22;99505.47;4973126;28;20053;-85
2022/09/30 11:38:09;;;;;;;34.60;19.75;;;;;;;18.76;62.73;99485.06;4972599;28;19926;-85
2022/09/30 11:40:53;;;;;;;41.38;19.42;;;;;;;18.92;62.98;99499.66;4939255;28;20046;-84
2022/09/30 11:44:01;;;;;;;36.13;19.35;;;;;;;18.91;62.55;99495.28;4955301;28;20050;-83
2022/09/30 11:47:10;;;;;;;40.17;19.67;;;;;;;18.88;62.52;99511.84;4956262;28;20521;-82
2022/09/30 11:50:15;;;;;;;48.25;19.40;;;;;;;18.70;63.06;99489.25;4953257;29;20067;-84
2022/09/30 11:52:50;;;;;;;47.92;21.48;;;;;;;18.79;63.06;99506.50;4936008;29;20047;-82